createdAt,value
2023-04-14T00:00:01.019Z,4.07
2023-04-14T00:01:00.904Z,4.08
2023-04-14T00:02:01.053Z,4.08
2023-04-14T00:03:00.997Z,4.10
2023-04-14T00:04:01.331Z,4.12
2023-04-14T00:05:00.873Z,4.14
2023-04-14T00:06:02.991Z,4.14
2023-04-14T00:07:00.840Z,4.18
2023-04-14T00:08:02.071Z,4.18
2023-04-14T00:09:01.163Z,4.18
2023-04-14T00:10:02.010Z,4.18
2023-04-14T00:11:00.808Z,4.18
2023-04-14T00:12:00.979Z,4.19
2023-04-14T00:13:00.784Z,4.19
2023-04-14T00:14:04.134Z,4.22
2023-04-14T00:15:00.773Z,4.25
2023-04-14T00:16:23.895Z,4.25
2023-04-14T00:17:00.795Z,4.25
2023-04-14T00:18:00.925Z,4.25
2023-04-14T00:19:01.001Z,4.24
2023-04-14T00:20:00.844Z,4.24
2023-04-14T00:21:00.698Z,4.29
2023-04-14T00:22:00.834Z,4.33
2023-04-14T00:23:00.671Z,4.32
2023-04-14T00:24:00.793Z,4.36
2023-04-14T00:25:00.663Z,4.36
2023-04-14T00:26:00.885Z,4.36
2023-04-14T00:27:00.643Z,4.34
2023-04-14T00:28:00.783Z,4.34
2023-04-14T00:29:01.031Z,4.36
2023-04-14T00:30:00.800Z,4.37
2023-04-14T00:31:00.659Z,4.37
2023-04-14T00:32:00.712Z,4.36
2023-04-14T00:33:00.646Z,4.37
2023-04-14T00:34:00.812Z,4.33
2023-04-14T00:35:00.580Z,4.36
2023-04-14T00:36:00.824Z,4.34
2023-04-14T00:37:00.562Z,4.33
2023-04-14T00:38:00.675Z,4.34
2023-04-14T00:39:00.752Z,4.40
2023-04-14T00:40:00.669Z,4.36
2023-04-14T00:41:00.503Z,4.34
2023-04-14T00:42:00.678Z,4.32
2023-04-14T00:43:00.487Z,4.29
2023-04-14T00:44:00.620Z,4.29
2023-04-14T00:45:00.454Z,4.32
2023-04-14T00:46:00.615Z,4.32
2023-04-14T00:47:00.441Z,4.32
2023-04-14T00:48:00.736Z,4.29
2023-04-14T00:49:00.779Z,4.24
2023-04-14T00:50:00.614Z,4.22
2023-04-14T00:51:00.411Z,4.25
2023-04-14T00:52:00.589Z,4.26
2023-04-14T00:53:00.382Z,4.32
2023-04-14T00:54:00.574Z,4.32
2023-04-14T00:55:00.384Z,4.32
2023-04-14T00:56:00.523Z,4.33
2023-04-14T00:57:00.329Z,4.33
2023-04-14T00:58:00.547Z,4.29
2023-04-14T00:59:00.425Z,4.29
2023-04-14T01:00:00.541Z,4.29
2023-04-14T01:01:00.292Z,4.29
2023-04-14T01:02:23.679Z,4.28
2023-04-14T01:03:00.433Z,4.29
2023-04-14T01:04:02.551Z,4.33
2023-04-14T01:05:00.458Z,4.29
2023-04-14T01:14:07.298Z,4.34
2023-04-14T01:14:41.080Z,4.33
2023-04-14T01:15:41.311Z,4.33
2023-04-14T01:16:41.037Z,4.32
2023-04-14T01:17:41.159Z,4.29
2023-04-14T01:18:41.024Z,4.29
2023-04-14T01:19:43.095Z,4.32
2023-04-14T01:20:40.989Z,4.34
2023-04-14T01:21:42.033Z,4.34
2023-04-14T01:22:40.972Z,4.29
2023-04-14T01:23:41.148Z,4.29
2023-04-14T01:24:41.008Z,4.32
2023-04-14T01:25:41.050Z,4.32
2023-04-14T01:26:40.926Z,4.33
2023-04-14T01:27:41.064Z,4.34
2023-04-14T01:28:41.023Z,4.33
2023-04-14T01:29:41.034Z,4.32
2023-04-14T01:30:40.894Z,4.22
2023-04-14T01:31:41.004Z,4.18
2023-04-14T01:32:40.893Z,4.16
2023-04-14T01:33:40.982Z,4.18
2023-04-14T01:34:40.864Z,4.16
2023-04-14T01:35:40.885Z,4.16
2023-04-14T01:36:40.842Z,4.15
2023-04-14T01:37:40.899Z,4.18
2023-04-14T01:38:40.808Z,4.21
2023-04-14T01:39:40.916Z,4.21
2023-04-14T01:40:40.797Z,4.21
2023-04-14T01:41:40.834Z,4.25
2023-04-14T01:42:40.774Z,4.28
2023-04-14T01:43:40.960Z,4.29
2023-04-14T01:44:40.768Z,4.26
2023-04-14T01:45:40.927Z,4.26
2023-04-14T01:46:40.731Z,4.24
2023-04-14T01:47:40.935Z,4.25
2023-04-14T01:48:40.716Z,4.26
2023-04-14T01:49:40.822Z,4.28
2023-04-14T01:50:40.706Z,4.26
2023-04-14T01:51:40.820Z,4.26
2023-04-14T01:52:40.672Z,4.28
2023-04-14T01:53:40.841Z,4.28
2023-04-14T01:54:40.648Z,4.32
2023-04-14T01:55:40.806Z,4.29
2023-04-14T01:56:40.632Z,4.32
2023-04-14T01:57:40.741Z,4.32
2023-04-14T01:58:40.622Z,4.33
2023-04-14T01:59:40.811Z,4.34
2023-04-14T02:00:40.754Z,4.33
2023-04-14T02:01:41.713Z,4.34
2023-04-14T02:02:40.689Z,4.36
2023-04-14T02:03:41.824Z,4.39
2023-04-14T02:04:40.558Z,4.42
2023-04-14T02:05:40.663Z,4.42
2023-04-14T02:06:40.522Z,4.43
2023-04-14T02:08:58.079Z,4.43
2023-04-14T02:09:58.787Z,4.39
2023-04-14T02:10:58.897Z,4.42
2023-04-14T02:11:58.774Z,4.42
2023-04-14T02:12:58.897Z,4.42
2023-04-14T02:13:58.765Z,4.40
2023-04-14T02:14:58.885Z,4.39
2023-04-14T02:15:58.738Z,4.37
2023-04-14T02:16:58.984Z,4.37
2023-04-14T02:17:58.750Z,4.33
2023-04-14T02:18:59.027Z,4.33
2023-04-14T02:19:58.700Z,4.28
2023-04-14T02:20:58.890Z,4.25
2023-04-14T02:21:58.677Z,4.21
2023-04-14T02:22:58.739Z,4.16
2023-04-14T02:23:58.644Z,4.16
2023-04-14T02:24:58.778Z,4.14
2023-04-14T02:25:58.654Z,4.12
2023-04-14T02:26:58.892Z,4.12
2023-04-14T02:27:58.593Z,4.10
2023-04-14T02:29:00.905Z,4.08
2023-04-14T02:29:58.579Z,4.07
2023-04-14T02:31:00.803Z,4.06
2023-04-14T02:31:58.579Z,4.03
2023-04-14T02:32:59.741Z,4.00
2023-04-14T02:33:58.534Z,3.97
2023-04-14T02:34:58.630Z,3.96
2023-04-14T02:35:58.549Z,3.92
2023-04-14T02:38:15.711Z,3.92
2023-04-14T02:39:16.702Z,3.90
2023-04-14T02:40:16.920Z,3.90
2023-04-14T02:41:16.710Z,3.90
2023-04-14T02:42:16.787Z,3.88
2023-04-14T02:43:16.658Z,3.89
2023-04-14T02:44:16.799Z,3.89
2023-04-14T02:45:16.643Z,3.89
2023-04-14T02:46:16.803Z,3.90
2023-04-14T02:47:16.634Z,3.88
2023-04-14T02:48:16.732Z,3.83
2023-04-14T02:49:16.648Z,3.78
2023-04-14T02:50:16.782Z,3.76
2023-04-14T02:51:16.614Z,3.75
2023-04-14T02:52:16.727Z,3.72
2023-04-14T02:53:16.559Z,3.71
2023-04-14T02:54:18.742Z,3.71
2023-04-14T02:55:16.543Z,3.70
2023-04-14T02:56:17.850Z,3.67
2023-04-14T02:57:16.551Z,3.65
2023-04-14T02:58:39.663Z,3.64
2023-04-14T02:59:16.513Z,3.65
2023-04-14T03:00:18.693Z,3.68
2023-04-14T03:01:16.508Z,3.70
2023-04-14T03:02:18.940Z,3.65
2023-04-14T03:03:16.632Z,3.67
2023-04-14T03:04:17.616Z,3.68
2023-04-14T03:05:16.455Z,3.67
2023-04-14T03:06:16.572Z,3.65
2023-04-14T03:07:27.434Z,3.61
2023-04-14T03:08:16.435Z,3.60
2023-04-14T03:09:16.593Z,3.58
2023-04-14T03:10:16.408Z,3.58
2023-04-14T03:11:16.613Z,3.57
2023-04-14T03:12:16.392Z,3.54
2023-04-14T03:13:16.542Z,3.46
2023-04-14T03:14:16.356Z,3.43
2023-04-14T03:15:16.528Z,3.43
2023-04-14T03:16:16.407Z,3.44
2023-04-14T03:17:16.553Z,3.44
2023-04-14T03:18:16.346Z,3.46
2023-04-14T03:19:16.456Z,3.46
2023-04-14T03:20:16.295Z,3.50
2023-04-14T03:21:16.462Z,3.52
2023-04-14T03:22:16.283Z,3.50
2023-04-14T03:23:16.450Z,3.52
2023-04-14T03:24:16.250Z,3.49
2023-04-14T03:25:16.380Z,3.47
2023-04-14T03:26:16.226Z,3.50
2023-04-14T03:27:16.394Z,3.47
2023-04-14T03:28:16.233Z,3.43
2023-04-14T03:29:16.432Z,3.40
2023-04-14T03:30:16.375Z,3.42
2023-04-14T03:31:16.497Z,3.44
2023-04-14T03:32:16.183Z,3.43
2023-04-14T03:33:16.434Z,3.40
2023-04-14T03:34:16.165Z,3.36
2023-04-14T03:35:16.380Z,3.31
2023-04-14T03:36:16.150Z,3.31
2023-04-14T03:37:17.192Z,3.31
2023-04-14T03:38:16.146Z,3.30
2023-04-14T04:22:04.106Z,2.77
2023-04-14T04:23:05.082Z,2.69
2023-04-14T04:24:05.136Z,2.64
2023-04-14T04:25:05.047Z,2.69
2023-04-14T04:26:05.157Z,2.67
2023-04-14T04:27:07.896Z,2.66
2023-04-14T04:28:05.037Z,2.64
2023-04-14T04:29:05.062Z,2.63
2023-04-14T04:30:05.025Z,2.63
2023-04-14T04:31:05.072Z,2.63
2023-04-14T04:32:05.055Z,2.64
2023-04-14T04:33:05.149Z,2.70
2023-04-14T04:34:04.956Z,2.66
2023-04-14T04:35:05.017Z,2.67
2023-04-14T04:36:04.947Z,2.74
2023-04-14T04:37:05.022Z,2.79
2023-04-14T04:38:04.938Z,2.74
2023-04-14T04:39:05.071Z,2.79
2023-04-14T04:40:04.911Z,2.82
2023-04-14T04:41:05.051Z,2.88
2023-04-14T04:42:04.871Z,2.91
2023-04-14T04:43:04.871Z,2.88
2023-04-14T04:44:04.895Z,2.87
2023-04-14T04:45:04.994Z,2.87
2023-04-14T04:46:04.861Z,2.89
2023-04-14T04:47:04.992Z,2.91
2023-04-14T04:48:06.020Z,2.92
2023-04-14T04:49:11.868Z,2.92
2023-04-14T04:50:10.199Z,2.94
2023-04-14T04:51:04.795Z,2.94
2023-04-14T04:52:04.874Z,2.95
2023-04-14T04:53:04.908Z,2.88
2023-04-14T04:54:04.886Z,2.82
2023-04-14T04:55:04.808Z,2.82
2023-04-14T04:56:04.854Z,2.84
2023-04-14T04:57:04.716Z,2.82
2023-04-14T04:58:04.873Z,2.84
2023-04-14T04:59:04.708Z,2.87
2023-04-14T05:00:04.814Z,2.89
2023-04-14T05:01:04.805Z,2.94
2023-04-14T05:02:26.963Z,2.91
2023-04-14T05:03:04.796Z,2.91
2023-04-14T05:04:04.820Z,2.92
2023-04-14T05:05:04.671Z,2.89
2023-04-14T05:06:25.810Z,2.82
2023-04-14T05:07:04.650Z,2.79
2023-04-14T05:08:04.616Z,2.79
2023-04-14T05:09:04.798Z,2.77
2023-04-14T05:10:04.604Z,2.77
2023-04-14T05:11:05.683Z,2.77
2023-04-14T05:12:04.567Z,2.82
2023-04-14T05:13:04.702Z,2.82
2023-04-14T05:14:04.675Z,2.82
2023-04-14T05:15:04.713Z,2.85
2023-04-14T05:16:04.587Z,2.89
2023-04-14T05:17:05.645Z,2.88
2023-04-14T05:18:04.564Z,2.89
2023-04-14T05:19:04.646Z,2.87
2023-04-14T05:20:04.508Z,2.84
2023-04-14T05:21:04.632Z,2.84
2023-04-14T05:22:04.500Z,2.84
2023-04-14T05:23:04.655Z,2.82
2023-04-14T05:24:04.519Z,2.82
2023-04-14T05:25:04.560Z,2.84
2023-04-14T05:26:26.965Z,2.87
2023-04-14T05:27:12.972Z,2.87
2023-04-14T05:28:04.494Z,2.87
2023-04-14T05:29:04.626Z,2.82
2023-04-14T05:30:05.257Z,2.84
2023-04-14T05:31:04.443Z,2.82
2023-04-14T05:32:04.402Z,2.84
2023-04-14T05:33:04.446Z,2.82
2023-04-14T05:34:04.403Z,2.77
2023-04-14T05:35:04.468Z,2.76
2023-04-14T05:36:04.331Z,2.73
2023-04-14T05:37:04.440Z,2.76
2023-04-14T05:38:04.310Z,2.73
2023-04-14T05:39:04.460Z,2.70
2023-04-14T05:40:04.299Z,2.71
2023-04-14T05:41:04.404Z,2.73
2023-04-14T05:42:04.301Z,2.74
2023-04-14T05:43:04.285Z,2.74
2023-04-14T05:44:04.774Z,2.76
2023-04-14T05:45:04.419Z,2.79
2023-04-14T05:46:04.259Z,2.87
2023-04-14T05:47:04.471Z,2.85
2023-04-14T05:48:04.272Z,2.84
2023-04-14T05:49:04.539Z,2.82
2023-04-14T05:50:04.236Z,2.82
2023-04-14T05:51:04.280Z,2.81
2023-04-14T05:52:04.172Z,2.84
2023-04-14T05:53:04.335Z,2.84
2023-04-14T05:54:04.244Z,2.84
2023-04-14T05:55:04.266Z,2.85
2023-04-14T05:56:04.147Z,2.84
2023-04-14T05:57:04.188Z,2.85
2023-04-14T05:58:04.099Z,2.89
2023-04-14T05:59:04.178Z,2.89
2023-04-14T06:00:04.108Z,2.92
2023-04-14T06:01:04.239Z,2.92
2023-04-14T06:02:04.136Z,2.94
2023-04-14T06:03:04.322Z,2.97
2023-04-14T06:04:04.877Z,2.95
2023-04-14T06:05:04.256Z,2.97
2023-04-14T06:06:04.020Z,2.98
2023-04-14T06:07:04.120Z,2.97
2023-04-14T06:08:04.019Z,3.00
2023-04-14T06:09:04.050Z,3.05
2023-04-14T06:10:04.001Z,3.05
2023-04-14T06:11:04.138Z,3.06
2023-04-14T06:12:03.979Z,3.07
2023-04-14T06:13:04.082Z,3.10
2023-04-14T06:14:03.952Z,3.10
2023-04-14T06:15:04.032Z,3.13
2023-04-14T06:16:03.937Z,3.12
2023-04-14T06:17:04.002Z,3.09
2023-04-14T06:18:03.962Z,3.09
2023-04-14T06:19:04.341Z,3.13
2023-04-14T06:20:03.932Z,3.12
2023-04-14T06:21:03.921Z,3.15
2023-04-14T06:22:03.862Z,3.16
2023-04-14T06:23:03.911Z,3.21
2023-04-14T06:24:03.841Z,3.21
2023-04-14T06:25:04.066Z,3.16
2023-04-14T06:26:03.849Z,3.16
2023-04-14T06:27:03.864Z,3.20
2023-04-14T06:28:03.821Z,3.21
2023-04-14T06:29:04.103Z,3.21
2023-04-14T06:30:03.786Z,3.20
2023-04-14T06:31:03.994Z,3.20
2023-04-14T06:32:03.808Z,3.21
2023-04-14T06:33:03.855Z,3.21
2023-04-14T06:34:06.966Z,3.24
2023-04-14T06:35:03.827Z,3.24
2023-04-14T06:36:03.713Z,3.24
2023-04-14T06:37:03.800Z,3.30
2023-04-14T06:38:03.727Z,3.31
2023-04-14T06:39:03.884Z,3.36
2023-04-14T06:40:03.698Z,3.39
2023-04-14T06:41:03.728Z,3.42
2023-04-14T06:42:03.676Z,3.42
2023-04-14T06:43:03.761Z,3.42
2023-04-14T06:44:03.643Z,3.42
2023-04-14T06:45:03.679Z,3.44
2023-04-14T06:46:03.646Z,3.44
2023-04-14T06:47:03.677Z,3.50
2023-04-14T06:48:03.697Z,3.52
2023-04-14T06:49:03.899Z,3.53
2023-04-14T06:50:03.640Z,3.60
2023-04-14T06:51:03.616Z,3.61
2023-04-14T06:52:03.569Z,3.60
2023-04-14T06:53:03.647Z,3.60
2023-04-14T06:54:03.976Z,3.60
2023-04-14T06:55:03.617Z,3.62
2023-04-14T06:56:03.547Z,3.68
2023-04-14T06:57:03.527Z,3.76
2023-04-14T06:58:03.658Z,3.82
2023-04-14T06:59:03.554Z,3.86
2023-04-14T07:00:03.482Z,3.89
2023-04-14T07:01:03.770Z,3.94
2023-04-14T07:02:03.616Z,4.03
2023-04-14T07:03:03.558Z,4.07
2023-04-14T07:04:06.858Z,4.15
2023-04-14T07:05:03.510Z,4.24
2023-04-14T07:06:03.617Z,4.32
2023-04-14T07:07:03.444Z,4.36
2023-04-14T07:08:03.508Z,4.42
2023-04-14T07:09:03.384Z,4.43
2023-04-14T07:10:03.493Z,4.46
2023-04-14T07:11:03.372Z,4.46
2023-04-14T07:12:03.523Z,4.51
2023-04-14T07:13:03.360Z,4.55
2023-04-14T07:14:03.686Z,4.59
2023-04-14T07:15:03.362Z,4.61
2023-04-14T07:16:03.410Z,4.69
2023-04-14T07:17:03.339Z,4.73
2023-04-14T07:18:03.422Z,4.79
2023-04-14T07:19:03.281Z,4.83
2023-04-14T07:20:03.370Z,4.86
2023-04-14T07:21:03.260Z,4.86
2023-04-14T07:22:03.304Z,4.89
2023-04-14T07:23:03.249Z,4.94
2023-04-14T07:24:03.646Z,4.98
2023-04-14T07:25:03.238Z,5.04
2023-04-14T07:26:03.312Z,5.07
2023-04-14T07:27:03.225Z,5.07
2023-04-14T07:28:04.102Z,5.10
2023-04-14T07:29:03.193Z,5.10
2023-04-14T07:30:03.290Z,5.10
2023-04-14T07:31:03.186Z,5.14
2023-04-14T07:32:03.295Z,5.19
2023-04-14T07:33:03.158Z,5.22
2023-04-14T07:34:03.290Z,5.27
2023-04-14T07:35:03.108Z,5.31
2023-04-14T07:36:03.977Z,5.35
2023-04-14T07:37:03.093Z,5.40
2023-04-14T07:38:03.188Z,5.43
2023-04-14T07:39:03.080Z,5.48
2023-04-14T07:40:03.098Z,5.50
2023-04-14T07:41:03.115Z,5.55
2023-04-14T07:42:03.228Z,5.57
2023-04-14T07:43:03.045Z,5.60
2023-04-14T07:44:03.443Z,5.66
2023-04-14T07:45:03.043Z,5.70
2023-04-14T07:46:03.049Z,5.73
2023-04-14T07:47:03.007Z,5.77
2023-04-14T07:48:03.397Z,5.82
2023-04-14T07:49:02.960Z,5.85
2023-04-14T07:50:03.194Z,5.92
2023-04-14T07:51:03.042Z,5.96
2023-04-14T07:52:03.066Z,6.01
2023-04-14T07:53:02.951Z,6.07
2023-04-14T07:54:03.293Z,6.16
2023-04-14T07:55:02.928Z,6.26
2023-04-14T07:56:02.980Z,6.38
2023-04-14T07:57:02.890Z,6.48
2023-04-14T07:58:03.041Z,6.58
2023-04-14T07:59:03.206Z,6.65
2023-04-14T08:00:03.026Z,6.76
2023-04-14T08:01:02.857Z,6.84
2023-04-14T08:02:03.001Z,6.90
2023-04-14T08:03:03.023Z,7.01
2023-04-14T08:04:03.229Z,7.07
2023-04-14T08:05:02.843Z,7.15
2023-04-14T08:06:02.933Z,7.24
2023-04-14T08:07:02.775Z,7.37
2023-04-14T08:08:02.965Z,7.47
2023-04-14T08:09:03.069Z,7.58
2023-04-14T08:10:03.026Z,7.72
2023-04-14T08:11:02.762Z,7.81
2023-04-14T08:12:02.988Z,7.92
2023-04-14T08:13:03.828Z,8.04
2023-04-14T08:14:02.890Z,8.11
2023-04-14T08:15:02.737Z,8.22
2023-04-14T08:16:03.741Z,8.32
2023-04-14T08:17:02.799Z,8.40
2023-04-14T08:18:02.793Z,8.51
2023-04-14T08:19:02.844Z,8.62
2023-04-14T08:20:04.728Z,8.76
2023-04-14T08:21:02.638Z,8.90
2023-04-14T08:22:03.662Z,9.02
2023-04-14T08:23:02.637Z,9.12
2023-04-14T08:24:02.687Z,9.23
2023-04-14T08:25:02.626Z,9.25
2023-04-14T08:26:02.727Z,9.35
2023-04-14T08:27:02.605Z,9.40
2023-04-14T08:28:02.674Z,9.53
2023-04-14T08:29:03.122Z,9.63
2023-04-14T08:30:02.666Z,9.76
2023-04-14T08:31:02.564Z,9.85
2023-04-14T08:32:02.702Z,9.91
2023-04-14T08:33:02.577Z,9.99
2023-04-14T08:34:02.643Z,10.06
2023-04-14T08:35:37.344Z,10.14
2023-04-14T08:36:02.530Z,10.25
2023-04-14T08:37:02.477Z,10.30
2023-04-14T08:38:02.588Z,10.40
2023-04-14T08:39:02.724Z,10.52
2023-04-14T08:40:02.598Z,10.65
2023-04-14T08:41:02.431Z,10.84
2023-04-14T08:42:02.493Z,10.96
2023-04-14T08:43:02.425Z,11.01
2023-04-14T08:44:02.575Z,10.99
2023-04-14T08:45:02.396Z,11.09
2023-04-14T08:46:02.681Z,11.16
2023-04-14T08:47:02.373Z,11.25
2023-04-14T08:48:02.569Z,11.34
2023-04-14T08:49:02.841Z,11.36
2023-04-14T08:50:02.479Z,11.39
2023-04-14T08:51:02.325Z,11.31
2023-04-14T08:52:02.527Z,11.25
2023-04-14T08:53:02.579Z,11.31
2023-04-14T08:54:02.537Z,11.47
2023-04-14T08:55:02.292Z,11.57
2023-04-14T08:56:02.438Z,11.64
2023-04-14T08:57:02.273Z,11.68
2023-04-14T08:58:02.387Z,11.74
2023-04-14T08:59:02.248Z,11.86
2023-04-14T09:00:02.453Z,11.94
2023-04-14T09:01:02.258Z,11.97
2023-04-14T09:02:03.476Z,12.08
2023-04-14T09:03:02.435Z,12.13
2023-04-14T09:04:03.919Z,12.15
2023-04-14T09:05:02.386Z,12.11
2023-04-14T09:06:24.252Z,12.11
2023-04-14T09:07:02.175Z,12.19
2023-04-14T09:08:04.232Z,12.27
2023-04-14T09:09:02.130Z,12.34
2023-04-14T09:10:02.268Z,12.31
2023-04-14T09:11:02.103Z,12.37
2023-04-14T09:12:02.182Z,12.44
2023-04-14T09:13:02.112Z,12.49
2023-04-14T09:14:02.403Z,12.52
2023-04-14T09:15:02.076Z,12.63
2023-04-14T09:16:02.218Z,12.60
2023-04-14T09:17:02.137Z,12.67
2023-04-14T09:18:02.409Z,12.85
2023-04-14T09:19:07.051Z,12.95
2023-04-14T09:20:36.348Z,12.99
2023-04-14T09:21:50.923Z,13.07
2023-04-14T09:22:02.018Z,13.17
2023-04-14T09:23:02.142Z,13.41
2023-04-14T09:24:02.254Z,13.63
2023-04-14T09:25:02.100Z,13.76
2023-04-14T09:26:01.986Z,13.81
2023-04-14T09:27:02.112Z,14.04
2023-04-14T09:28:01.951Z,14.21
2023-04-14T09:29:02.213Z,14.43
2023-04-14T09:30:01.927Z,14.57
2023-04-14T09:31:02.103Z,14.86
2023-04-14T09:32:01.935Z,15.06
2023-04-14T09:33:02.076Z,15.20
2023-04-14T09:34:02.203Z,15.42
2023-04-14T09:35:02.061Z,15.61
2023-04-14T09:36:01.870Z,15.93
2023-04-14T09:37:02.671Z,16.25
2023-04-14T09:38:01.877Z,16.45
2023-04-14T09:39:01.968Z,16.56
2023-04-14T09:40:01.819Z,16.60
2023-04-14T09:41:01.992Z,16.98
2023-04-14T09:42:01.814Z,17.08
2023-04-14T09:43:01.905Z,17.08
2023-04-14T09:44:01.909Z,17.14
2023-04-14T09:45:01.866Z,17.28
2023-04-14T09:46:01.816Z,17.48
2023-04-14T09:47:01.983Z,17.53
2023-04-14T09:48:01.821Z,17.63
2023-04-14T09:49:01.835Z,17.88
2023-04-14T09:50:01.729Z,18.10
2023-04-14T09:51:02.879Z,18.28
2023-04-14T09:52:01.774Z,18.28
2023-04-14T09:53:02.226Z,18.27
2023-04-14T09:54:02.106Z,18.31
2023-04-14T09:55:22.870Z,18.19
2023-04-14T09:56:01.677Z,18.44
2023-04-14T09:58:17.975Z,19.13
2023-04-14T09:59:18.975Z,19.36
2023-04-14T10:00:19.239Z,19.65
2023-04-14T10:01:18.967Z,18.92
2023-04-14T10:02:19.240Z,18.58
2023-04-14T10:03:19.245Z,17.48
2023-04-14T10:04:18.976Z,17.66
2023-04-14T10:05:18.930Z,18.02
2023-04-14T10:06:19.077Z,18.03
2023-04-14T10:07:18.897Z,16.65
2023-04-14T10:08:18.985Z,15.64
2023-04-14T10:09:18.884Z,15.02
2023-04-14T10:10:19.182Z,14.44
2023-04-14T10:11:18.938Z,14.13
2023-04-14T10:12:19.054Z,13.89
2023-04-14T10:13:18.877Z,13.71
2023-04-14T10:14:18.991Z,13.58
2023-04-14T10:15:18.799Z,13.51
2023-04-14T10:16:19.010Z,13.46
2023-04-14T10:17:18.784Z,13.40
2023-04-14T10:18:19.060Z,13.33
2023-04-14T10:19:18.781Z,13.30
2023-04-14T10:20:18.988Z,13.29
2023-04-14T10:21:18.741Z,13.38
2023-04-14T10:22:18.886Z,13.27
2023-04-14T10:23:18.722Z,13.14
2023-04-14T10:24:18.951Z,13.02
2023-04-14T10:25:18.721Z,13.02
2023-04-14T10:26:18.907Z,13.09
2023-04-14T10:27:18.717Z,13.11
2023-04-14T10:28:18.841Z,13.12
2023-04-14T10:29:18.692Z,13.09
2023-04-14T10:30:18.848Z,13.04
2023-04-14T10:31:18.642Z,13.02
2023-04-14T10:32:18.828Z,12.96
2023-04-14T10:33:18.639Z,12.92
2023-04-14T10:34:18.854Z,12.85
2023-04-14T10:35:18.675Z,12.75
2023-04-14T10:36:18.729Z,12.57
2023-04-14T10:37:19.009Z,12.39
2023-04-14T10:38:18.678Z,12.19
2023-04-14T10:39:18.585Z,12.09
2023-04-14T10:40:18.976Z,11.97
2023-04-14T10:41:18.646Z,11.85
2023-04-14T10:42:18.607Z,11.83
2023-04-14T10:43:18.502Z,11.86
2023-04-14T10:44:18.584Z,11.94
2023-04-14T10:45:18.484Z,11.97
2023-04-14T10:46:18.801Z,12.04
2023-04-14T10:47:18.556Z,12.08
2023-04-14T10:48:18.555Z,12.19
2023-04-14T10:49:18.474Z,12.21
2023-04-14T10:50:18.686Z,12.19
2023-04-14T10:51:18.468Z,12.12
2023-04-14T10:52:18.807Z,12.04
2023-04-14T10:53:18.416Z,11.94
2023-04-14T10:54:18.566Z,11.89
2023-04-14T10:55:18.396Z,11.86
2023-04-14T10:56:18.528Z,11.86
2023-04-14T10:57:18.368Z,11.86
2023-04-14T10:58:18.651Z,11.89
2023-04-14T10:59:18.341Z,11.94
2023-04-14T11:00:18.460Z,11.99
2023-04-14T11:01:18.374Z,12.01
2023-04-14T11:02:18.532Z,12.06
2023-04-14T11:03:18.505Z,12.09
2023-04-14T11:04:20.505Z,12.12
2023-04-14T11:05:18.303Z,12.06
2023-04-14T11:06:18.473Z,12.04
2023-04-14T11:07:18.414Z,11.97
2023-04-14T11:08:20.351Z,11.93
2023-04-14T11:09:18.246Z,11.87
2023-04-14T11:10:21.574Z,11.82
2023-04-14T11:11:18.249Z,11.77
2023-04-14T11:12:19.347Z,11.68
2023-04-14T11:13:18.189Z,11.65
2023-04-14T11:14:18.394Z,11.64
2023-04-14T11:15:18.202Z,11.62
2023-04-14T11:16:18.354Z,11.65
2023-04-14T11:17:18.270Z,11.65
2023-04-14T11:18:18.388Z,11.65
2023-04-14T11:19:18.138Z,11.67
2023-04-14T11:20:18.320Z,11.70
2023-04-14T11:21:18.174Z,11.72
2023-04-14T11:22:18.092Z,11.74
2023-04-14T11:23:18.169Z,11.75
2023-04-14T11:24:18.203Z,11.78
2023-04-14T11:25:19.085Z,11.85
2023-04-14T11:26:18.071Z,11.89
2023-04-14T11:27:18.057Z,11.89
2023-04-14T11:28:18.051Z,11.89
2023-04-14T11:29:18.177Z,11.89
2023-04-14T11:30:18.948Z,11.87
2023-04-14T11:31:19.019Z,11.97
2023-04-14T11:32:18.162Z,11.94
2023-04-14T11:33:18.151Z,11.85
2023-04-14T11:34:18.134Z,11.80
2023-04-14T11:35:18.468Z,11.72
2023-04-14T11:36:17.960Z,11.68
2023-04-14T11:37:18.537Z,11.64
2023-04-14T11:38:17.942Z,11.59
2023-04-14T11:39:18.003Z,11.59
2023-04-14T11:40:17.955Z,11.59
2023-04-14T11:41:18.005Z,11.59
2023-04-14T11:42:17.885Z,11.62
2023-04-14T11:43:18.148Z,11.61
2023-04-14T11:44:17.879Z,11.61
2023-04-14T11:45:18.037Z,11.64
2023-04-14T11:46:17.933Z,11.61
2023-04-14T11:47:17.950Z,11.62
2023-04-14T11:48:17.825Z,11.61
2023-04-14T11:49:17.979Z,11.57
2023-04-14T11:50:17.807Z,11.53
2023-04-14T11:51:17.922Z,11.53
2023-04-14T11:52:17.774Z,11.54
2023-04-14T11:53:18.914Z,11.61
2023-04-14T11:54:17.793Z,11.61
2023-04-14T11:55:17.908Z,11.64
2023-04-14T11:56:17.741Z,11.65
2023-04-14T11:57:18.916Z,11.65
2023-04-14T11:58:17.738Z,11.59
2023-04-14T11:59:38.859Z,11.54
2023-04-14T12:00:17.701Z,11.49
2023-04-14T12:01:19.828Z,11.47
2023-04-14T12:02:17.833Z,11.44
2023-04-14T12:03:18.021Z,11.41
2023-04-14T12:04:17.841Z,11.41
2023-04-14T12:05:17.862Z,11.36
2023-04-14T12:06:17.664Z,11.34
2023-04-14T12:07:17.822Z,11.31
2023-04-14T12:08:17.623Z,11.29
2023-04-14T12:09:17.705Z,11.29
2023-04-14T12:10:17.600Z,11.32
2023-04-14T12:11:21.173Z,11.35
2023-04-14T12:12:17.716Z,11.34
2023-04-14T12:13:17.719Z,11.32
2023-04-14T12:14:17.559Z,11.31
2023-04-14T12:15:17.752Z,11.29
2023-04-14T12:16:17.801Z,11.27
2023-04-14T12:17:20.422Z,11.25
2023-04-14T12:18:17.511Z,11.21
2023-04-14T12:19:17.671Z,11.16
2023-04-14T12:20:17.512Z,11.09
2023-04-14T12:21:17.495Z,10.99
2023-04-14T12:22:17.758Z,10.95
2023-04-14T12:23:17.466Z,10.89
2023-04-14T12:24:17.617Z,10.88
2023-04-14T12:25:17.440Z,10.86
2023-04-14T12:26:17.611Z,10.78
2023-04-14T12:27:17.459Z,10.76
2023-04-14T12:28:17.547Z,10.71
2023-04-14T12:29:17.388Z,10.65
2023-04-14T12:30:17.543Z,10.60
2023-04-14T12:31:17.405Z,10.59
2023-04-14T12:32:17.634Z,10.56
2023-04-14T12:33:17.365Z,10.55
2023-04-14T12:34:17.487Z,10.53
2023-04-14T12:35:17.331Z,10.52
2023-04-14T12:36:17.496Z,10.47
2023-04-14T12:37:17.332Z,10.46
2023-04-14T12:38:17.521Z,10.42
2023-04-14T12:39:17.303Z,10.43
2023-04-14T12:40:18.445Z,10.42
2023-04-14T12:41:17.271Z,10.40
2023-04-14T12:42:17.522Z,10.39
2023-04-14T12:43:17.261Z,10.39
2023-04-14T12:44:17.473Z,10.37
2023-04-14T12:45:17.265Z,10.37
2023-04-14T12:47:34.336Z,10.39
2023-04-14T12:48:35.028Z,10.34
2023-04-14T12:49:35.186Z,10.33
2023-04-14T12:50:35.020Z,10.34
2023-04-14T12:51:35.219Z,10.36
2023-04-14T12:52:35.018Z,10.44
2023-04-14T12:53:35.023Z,10.55
2023-04-14T12:54:34.956Z,10.60
2023-04-14T12:55:35.116Z,10.66
2023-04-14T12:56:34.933Z,10.73
2023-04-14T12:57:35.180Z,10.77
2023-04-14T12:58:34.915Z,10.78
2023-04-14T12:59:34.943Z,10.80
2023-04-14T13:00:34.904Z,10.80
2023-04-14T13:01:35.172Z,10.81
2023-04-14T13:02:34.964Z,10.81
2023-04-14T13:03:35.286Z,10.84
2023-04-14T13:04:34.906Z,10.89
2023-04-14T13:05:34.915Z,10.94
2023-04-14T13:06:34.848Z,10.98
2023-04-14T13:07:34.985Z,11.03
2023-04-14T13:08:34.819Z,11.11
2023-04-14T13:09:34.950Z,11.16
2023-04-14T13:10:34.791Z,11.24
2023-04-14T13:11:55.800Z,11.31
2023-04-14T13:12:34.822Z,11.34
2023-04-14T13:13:34.878Z,11.35
2023-04-14T13:14:34.756Z,11.38
2023-04-14T13:16:14.992Z,11.39
2023-04-14T13:16:34.821Z,11.43
2023-04-14T13:17:34.960Z,11.44
2023-04-14T13:18:34.813Z,11.52
2023-04-14T13:19:34.715Z,11.57
2023-04-14T13:20:34.805Z,11.56
2023-04-14T13:21:34.700Z,11.57
2023-04-14T13:22:34.766Z,11.56
2023-04-14T13:23:34.691Z,11.54
2023-04-14T13:24:34.712Z,11.53
2023-04-14T13:25:34.628Z,11.49
2023-04-14T13:26:34.746Z,11.49
2023-04-14T13:27:34.604Z,11.46
2023-04-14T13:28:34.697Z,11.38
2023-04-14T13:29:34.612Z,11.35
2023-04-14T13:30:34.674Z,11.32
2023-04-14T13:31:34.631Z,11.32
2023-04-14T13:32:34.707Z,11.35
2023-04-14T13:33:34.576Z,11.36
2023-04-14T13:34:34.727Z,11.36
2023-04-14T13:35:34.535Z,11.41
2023-04-14T13:36:34.610Z,11.44
2023-04-14T13:37:34.516Z,11.50
2023-04-14T13:38:34.670Z,11.54
2023-04-14T13:39:34.500Z,11.54
2023-04-14T13:40:34.641Z,11.49
2023-04-14T13:41:34.470Z,11.46
2023-04-14T13:42:34.553Z,11.46
2023-04-14T13:43:34.473Z,11.41
2023-04-14T13:44:34.526Z,11.39
2023-04-14T13:45:34.466Z,11.38
2023-04-14T13:46:40.823Z,11.34
2023-04-14T13:47:34.493Z,11.32
2023-04-14T13:48:34.529Z,11.29
2023-04-14T13:49:34.423Z,11.25
2023-04-14T13:50:34.499Z,11.21
2023-04-14T13:51:34.362Z,11.16
2023-04-14T13:52:34.518Z,11.14
2023-04-14T13:53:34.347Z,11.10
2023-04-14T13:54:34.462Z,11.09
2023-04-14T13:55:34.340Z,11.07
2023-04-14T13:56:34.473Z,11.03
2023-04-14T13:57:34.322Z,10.99
2023-04-14T13:58:34.480Z,10.96
2023-04-14T13:59:34.307Z,10.94
2023-04-14T14:00:34.372Z,10.92
2023-04-14T14:01:34.301Z,10.89
2023-04-14T14:02:34.494Z,10.89